Time;durP1;ratioP1;P1;durP2;ratioP2;P2;SDS_P1;SDS_P2;PMS_P1;PMS_P2;Temp;Humidity;BMP_temperature;BMP_pressure;BME280_temperature;BME280_humidity;BME280_pressure;Samples;Min_cycle;Max_cycle;Signal;HPM_P1;HPM_P2
2023/12/16 00:00:36;;;;;;;7.10;6.50;;;;;;;7.41;100.00;102650.78;5056569;28;20195;-76
2023/12/16 00:03:01;;;;;;;8.43;7.60;;;;;;;7.44;100.00;102647.47;5052611;28;20187;-76
2023/12/16 00:05:27;;;;;;;8.00;7.20;;;;;;;7.42;100.00;102659.41;5054440;28;20667;-76
2023/12/16 00:07:52;;;;;;;8.43;7.10;;;;;;;7.41;100.00;102658.50;5051073;28;20295;-76
2023/12/16 00:10:18;;;;;;;8.20;7.50;;;;;;;7.43;100.00;102654.31;5054193;28;20199;-75
2023/12/16 00:12:43;;;;;;;8.67;7.87;;;;;;;7.42;100.00;102672.28;5057329;28;20180;-76
2023/12/16 00:15:10;;;;;;;7.93;7.23;;;;;;;7.38;100.00;102663.56;5053982;28;20950;-75
2023/12/16 00:17:36;;;;;;;8.23;7.43;;;;;;;7.37;100.00;102660.91;5053726;28;20546;-76
2023/12/16 00:20:01;;;;;;;6.70;6.10;;;;;;;7.36;100.00;102661.72;5054511;28;20242;-76
2023/12/16 00:22:26;;;;;;;7.93;7.23;;;;;;;7.34;100.00;102669.38;5053186;28;20275;-76
2023/12/16 00:24:52;;;;;;;7.87;7.17;;;;;;;7.35;100.00;102670.25;5056611;28;20743;-77
2023/12/16 00:27:17;;;;;;;7.23;6.63;;;;;;;7.38;100.00;102662.66;5057921;28;20214;-76
2023/12/16 00:29:43;;;;;;;7.37;6.53;;;;;;;7.40;100.00;102650.72;5048810;28;20270;-76
2023/12/16 00:32:08;;;;;;;7.23;6.60;;;;;;;7.42;100.00;102647.38;5049737;28;20195;-76
2023/12/16 00:34:34;;;;;;;7.30;6.60;;;;;;;7.39;100.00;102633.50;5054499;28;20193;-76
2023/12/16 00:37:01;;;;;;;7.23;6.63;;;;;;;7.39;100.00;102636.09;5056898;28;20763;-75
2023/12/16 00:39:26;;;;;;;7.57;6.87;;;;;;;7.38;100.00;102650.69;5056531;28;20177;-76
2023/12/16 00:41:51;;;;;;;7.33;6.73;;;;;;;7.38;100.00;102644.63;5057717;28;20190;-76
2023/12/16 00:44:16;;;;;;;7.43;6.73;;;;;;;7.36;100.00;102642.00;5053160;28;20207;-76
2023/12/16 00:46:42;;;;;;;7.07;6.47;;;;;;;7.33;100.00;102645.31;5048442;28;20303;-78
2023/12/16 00:49:08;;;;;;;7.00;6.40;;;;;;;7.32;100.00;102643.56;5057560;28;20507;-77
2023/12/16 00:51:33;;;;;;;7.10;6.50;;;;;;;7.31;100.00;102652.13;5052050;28;20188;-76
2023/12/16 00:53:58;;;;;;;6.93;6.33;;;;;;;7.30;100.00;102650.34;5055405;28;20697;-76
2023/12/16 00:56:24;;;;;;;7.07;6.47;;;;;;;7.30;100.00;102652.03;5056340;28;20217;-76
2023/12/16 00:58:49;;;;;;;7.00;6.40;;;;;;;7.29;100.00;102656.31;5055839;28;20698;-76
2023/12/16 01:01:14;;;;;;;6.80;6.20;;;;;;;7.26;100.00;102658.75;5056664;28;20673;-77
2023/12/16 01:03:40;;;;;;;7.17;6.57;;;;;;;7.27;100.00;102659.63;5055836;28;20657;-76
2023/12/16 01:06:06;;;;;;;6.90;6.30;;;;;;;7.25;100.00;102662.13;5053779;28;20214;-76
2023/12/16 01:08:32;;;;;;;6.70;6.10;;;;;;;7.23;100.00;102666.34;5053014;28;20205;-76
2023/12/16 01:10:58;;;;;;;6.90;6.30;;;;;;;7.23;100.00;102665.47;5056670;28;20236;-76
2023/12/16 01:13:23;;;;;;;7.30;6.70;;;;;;;7.24;100.00;102670.69;5055071;28;20253;-77
2023/12/16 01:15:49;;;;;;;6.83;6.23;;;;;;;7.19;100.00;102677.31;5058432;28;20247;-75
2023/12/16 01:18:15;;;;;;;7.00;6.40;;;;;;;7.13;100.00;102672.78;5055172;28;20215;-75
2023/12/16 01:20:41;;;;;;;7.40;6.70;;;;;;;7.13;100.00;102679.63;5056463;28;20654;-78
2023/12/16 01:23:06;;;;;;;7.93;7.23;;;;;;;7.11;100.00;102679.56;5060818;28;20242;-76
2023/12/16 01:25:31;;;;;;;7.77;7.07;;;;;;;7.09;100.00;102681.22;5055082;28;20776;-76
2023/12/16 01:27:57;;;;;;;6.53;6.03;;;;;;;7.06;100.00;102675.03;5060569;28;20918;-77
2023/12/16 01:30:24;;;;;;;7.43;6.73;;;;;;;7.03;100.00;102667.19;5055389;28;20276;-75
2023/12/16 01:32:49;;;;;;;7.10;6.50;;;;;;;6.97;100.00;102683.22;5053976;28;20346;-77
2023/12/16 01:35:14;;;;;;;7.73;7.03;;;;;;;6.93;100.00;102681.34;5056712;28;20728;-76
2023/12/16 01:37:40;;;;;;;7.90;7.20;;;;;;;6.90;100.00;102676.03;5058588;28;20674;-76
2023/12/16 01:40:06;;;;;;;8.87;6.90;;;;;;;6.88;100.00;102686.28;5056666;28;20814;-76
2023/12/16 01:42:32;;;;;;;8.27;7.57;;;;;;;6.87;100.00;102671.66;5058254;28;20228;-76
2023/12/16 01:44:57;;;;;;;8.00;7.30;;;;;;;6.85;100.00;102670.69;5055181;28;20193;-76
2023/12/16 01:47:23;;;;;;;8.03;7.33;;;;;;;6.86;100.00;102672.47;5056321;28;20210;-76
2023/12/16 01:49:48;;;;;;;7.30;6.70;;;;;;;6.88;100.00;102670.84;5059237;28;20914;-75
2023/12/16 01:52:14;;;;;;;8.00;7.30;;;;;;;6.90;100.00;102676.03;5057704;28;20688;-76
2023/12/16 01:54:40;;;;;;;8.63;7.83;;;;;;;6.92;100.00;102674.44;5055447;28;20630;-76
2023/12/16 01:57:06;;;;;;;8.20;7.50;;;;;;;6.93;100.00;102686.50;5055965;28;20210;-76
2023/12/16 01:59:31;;;;;;;8.70;7.90;;;;;;;6.97;100.00;102683.22;5057799;28;20184;-76
2023/12/16 02:01:58;;;;;;;7.47;6.83;;;;;;;7.01;100.00;102670.56;5059191;28;20245;-76
2023/12/16 02:04:23;;;;;;;7.90;7.20;;;;;;;7.04;100.00;102674.97;5062512;28;20189;-75
2023/12/16 02:06:50;;;;;;;9.00;8.10;;;;;;;7.07;100.00;102675.09;5059529;28;20626;-76
2023/12/16 02:09:17;;;;;;;9.27;8.47;;;;;;;7.09;100.00;102675.16;5072604;28;20184;-76
2023/12/16 02:11:42;;;;;;;9.80;8.90;;;;;;;7.05;100.00;102681.88;5065147;28;20194;-76
2023/12/16 02:14:08;;;;;;;9.43;8.53;;;;;;;7.06;100.00;102675.91;5061796;28;20891;-76
2023/12/16 02:16:33;;;;;;;9.57;8.77;;;;;;;7.09;100.00;102693.19;5061136;28;20222;-76
2023/12/16 02:18:59;;;;;;;9.53;8.63;;;;;;;7.08;100.00;102691.41;5061871;28;20246;-75
2023/12/16 02:21:24;;;;;;;9.23;8.43;;;;;;;7.10;100.00;102694.94;5054814;28;20739;-76
2023/12/16 02:23:49;;;;;;;9.60;8.73;;;;;;;7.10;100.00;102695.84;5057563;28;20897;-76
2023/12/16 02:26:15;;;;;;;8.90;8.00;;;;;;;7.16;100.00;102687.50;5059537;28;20732;-77
2023/12/16 02:28:40;;;;;;;8.97;8.17;;;;;;;7.17;100.00;102694.41;5061026;28;20235;-77
2023/12/16 02:31:06;;;;;;;8.70;7.90;;;;;;;7.20;100.00;102693.66;5059492;28;20184;-76
2023/12/16 02:33:31;;;;;;;8.30;7.60;;;;;;;7.21;100.00;102700.56;5061518;28;20188;-76
2023/12/16 02:35:56;;;;;;;9.93;8.93;;;;;;;7.22;100.00;102692.91;5061723;28;20219;-76
2023/12/16 02:38:22;;;;;;;10.10;9.10;;;;;;;7.23;100.00;102696.38;5058945;28;20212;-76
2023/12/16 02:40:48;;;;;;;9.00;8.20;;;;;;;7.21;100.00;102701.44;5061443;28;20176;-76
2023/12/16 02:43:14;;;;;;;9.37;8.47;;;;;;;7.19;100.00;102700.50;5059912;28;20200;-77
2023/12/16 02:45:39;;;;;;;10.13;9.23;;;;;;;7.17;100.00;102699.56;5058723;28;20699;-77
2023/12/16 02:48:05;;;;;;;9.43;8.53;;;;;;;7.19;100.00;102703.06;5058285;28;20246;-76
2023/12/16 02:50:30;;;;;;;8.63;7.90;;;;;;;7.19;100.00;102710.78;5059000;28;22013;-76
2023/12/16 02:52:55;;;;;;;8.40;7.70;;;;;;;7.21;100.00;102713.47;5059305;28;20197;-76
2023/12/16 02:55:21;;;;;;;9.60;8.60;;;;;;;7.21;100.00;102724.63;5054310;28;20459;-76
2023/12/16 02:57:46;;;;;;;9.00;8.20;;;;;;;7.21;100.00;102722.03;5061771;28;20179;-76
2023/12/16 03:00:12;;;;;;;9.37;8.47;;;;;;;7.21;100.00;102721.19;5065372;28;20681;-76
2023/12/16 03:02:37;;;;;;;9.67;8.87;;;;;;;7.21;100.00;102716.91;5058722;28;20186;-76
2023/12/16 03:05:03;;;;;;;9.57;8.67;;;;;;;7.21;100.00;102711.75;5058271;28;20907;-76
2023/12/16 03:07:28;;;;;;;9.37;8.43;;;;;;;7.17;100.00;102709.88;5054987;28;20774;-75
2023/12/16 03:09:54;;;;;;;8.93;8.03;;;;;;;7.15;100.00;102714.94;5060105;28;20189;-76
2023/12/16 03:12:20;;;;;;;9.37;8.47;;;;;;;7.14;100.00;102720.03;5057905;28;20208;-76
2023/12/16 03:14:45;;;;;;;8.83;8.07;;;;;;;7.14;100.00;102725.19;5058398;28;20186;-77
2023/12/16 03:17:12;;;;;;;8.73;8.00;;;;;;;7.11;100.00;102720.75;5062378;28;20208;-76
2023/12/16 03:19:38;;;;;;;10.20;9.33;;;;;;;7.09;100.00;102724.97;5055939;28;20279;-77
2023/12/16 03:22:03;;;;;;;9.57;8.67;;;;;;;7.06;100.00;102722.25;5058013;28;20546;-75
2023/12/16 03:24:29;;;;;;;9.50;8.60;;;;;;;7.03;100.00;102718.69;5061223;28;20543;-76
2023/12/16 03:26:54;;;;;;;9.23;8.43;;;;;;;6.97;100.00;102719.25;5058178;28;20216;-76
2023/12/16 03:29:19;;;;;;;9.57;8.67;;;;;;;6.93;100.00;102719.94;5060179;28;20192;-76
2023/12/16 03:31:45;;;;;;;9.20;8.40;;;;;;;6.92;100.00;102720.75;5058711;28;20184;-76
2023/12/16 03:34:10;;;;;;;8.57;7.87;;;;;;;6.89;100.00;102726.63;5059315;28;20192;-76
2023/12/16 03:36:35;;;;;;;8.60;7.80;;;;;;;6.88;100.00;102724.00;5059218;28;20227;-76
2023/12/16 03:39:01;;;;;;;9.37;8.47;;;;;;;6.86;100.00;102721.38;5057937;28;20280;-76
2023/12/16 03:41:26;;;;;;;9.03;8.13;;;;;;;6.84;100.00;102722.97;5058011;28;20211;-76
2023/12/16 03:43:51;;;;;;;9.37;8.57;;;;;;;6.81;100.00;102723.72;5058551;28;21197;-76
2023/12/16 03:46:17;;;;;;;10.07;8.87;;;;;;;6.80;100.00;102723.66;5058597;28;20729;-76
2023/12/16 03:48:43;;;;;;;9.33;8.53;;;;;;;6.78;100.00;102725.28;5059411;28;20209;-75
2023/12/16 03:51:08;;;;;;;9.23;8.33;;;;;;;6.77;100.00;102723.50;5058002;28;20187;-76
2023/12/16 03:53:34;;;;;;;9.60;8.80;;;;;;;6.75;100.00;102719.97;5055890;28;20184;-76
2023/12/16 03:55:59;;;;;;;9.90;8.93;;;;;;;6.69;100.00;102715.44;5057148;28;20209;-76
2023/12/16 03:58:25;;;;;;;9.27;8.37;;;;;;;6.65;100.00;102722.13;5057434;28;20268;-76
2023/12/16 04:00:51;;;;;;;10.23;9.27;;;;;;;6.62;100.00;102715.97;5058754;28;20269;-76
2023/12/16 04:03:16;;;;;;;9.53;8.73;;;;;;;6.55;100.00;102723.38;5055028;28;20207;-75
2023/12/16 04:05:42;;;;;;;10.37;9.37;;;;;;;6.51;100.00;102721.47;5054949;28;20750;-76
2023/12/16 04:08:07;;;;;;;9.57;8.57;;;;;;;6.46;100.00;102720.41;5054926;28;20230;-77
2023/12/16 04:10:33;;;;;;;9.63;8.73;;;;;;;6.40;100.00;102717.53;5057738;28;20189;-76
2023/12/16 04:12:58;;;;;;;10.07;9.07;;;;;;;6.38;100.00;102717.47;5059719;28;20183;-75
2023/12/16 04:15:23;;;;;;;9.80;8.87;;;;;;;6.37;100.00;102705.41;5060331;28;20192;-76
2023/12/16 04:17:49;;;;;;;10.63;9.63;;;;;;;6.38;100.00;102704.59;5063368;28;20909;-76
2023/12/16 04:20:14;;;;;;;10.23;9.23;;;;;;;6.37;100.00;102702.84;5059579;28;20805;-76
2023/12/16 04:22:40;;;;;;;9.90;9.10;;;;;;;6.34;100.00;102702.69;5053401;28;20268;-76
2023/12/16 04:25:10;;;;;;;9.47;8.60;;;;;;;6.33;100.00;102716.34;5058413;28;20665;-75
2023/12/16 04:27:36;;;;;;;9.83;8.93;;;;;;;6.33;100.00;102715.47;5056340;28;20247;-77
2023/12/16 04:30:01;;;;;;;9.33;8.43;;;;;;;6.33;100.00;102716.34;5058383;28;20739;-75
2023/12/16 04:32:27;;;;;;;11.00;9.63;;;;;;;6.32;100.00;102712.00;5056499;28;20244;-76
2023/12/16 04:34:52;;;;;;;9.20;8.40;;;;;;;6.30;100.00;102721.34;5056294;28;20200;-76
2023/12/16 04:37:17;;;;;;;10.17;9.17;;;;;;;6.31;100.00;102727.38;5054343;28;20209;-75
2023/12/16 04:39:43;;;;;;;9.70;8.90;;;;;;;6.30;100.00;102720.47;5056724;28;20209;-76
2023/12/16 04:42:10;;;;;;;9.63;8.73;;;;;;;6.31;100.00;102732.53;5052326;28;20198;-76
2023/12/16 04:44:38;;;;;;;10.20;9.30;;;;;;;6.33;100.00;102728.34;5056041;28;20693;-76
2023/12/16 04:47:04;;;;;;;10.13;9.23;;;;;;;6.34;100.00;102728.41;5052944;28;20731;-78
2023/12/16 04:49:29;;;;;;;10.00;9.00;;;;;;;6.36;100.00;102720.75;5056219;28;20183;-75
2023/12/16 04:51:55;;;;;;;9.20;8.40;;;;;;;6.39;100.00;102713.19;5053581;28;20187;-76
2023/12/16 04:54:21;;;;;;;9.90;9.00;;;;;;;6.39;100.00;102710.59;5055192;28;20183;-76
2023/12/16 04:56:47;;;;;;;10.13;9.13;;;;;;;6.41;100.00;102716.72;5052418;28;20749;-76
2023/12/16 04:59:13;;;;;;;9.97;8.93;;;;;;;6.42;100.00;102718.47;5053544;28;20553;-76
2023/12/16 05:01:38;;;;;;;9.43;8.53;;;;;;;6.43;100.00;102716.81;5051122;28;20198;-76
2023/12/16 05:04:04;;;;;;;9.37;8.57;;;;;;;6.41;100.00;102716.72;5054395;28;20195;-76
2023/12/16 05:06:29;;;;;;;9.60;8.70;;;;;;;6.41;100.00;102721.84;5056892;28;20695;-77
2023/12/16 05:08:55;;;;;;;10.37;9.47;;;;;;;6.40;100.00;102726.13;5055064;28;20200;-75
2023/12/16 05:11:20;;;;;;;9.53;8.73;;;;;;;6.42;100.00;102722.75;5057476;28;20215;-76
2023/12/16 05:13:45;;;;;;;9.63;8.70;;;;;;;6.39;100.00;102720.91;5055566;28;20211;-76
2023/12/16 05:16:17;;;;;;;9.57;8.77;;;;;;;6.37;100.00;102718.25;5058742;28;20210;-76
2023/12/16 05:18:42;;;;;;;9.20;8.37;;;;;;;6.36;100.00;102726.78;5052907;28;20180;-76
2023/12/16 05:21:08;;;;;;;9.27;8.47;;;;;;;6.35;100.00;102729.31;5057780;28;20192;-76
2023/12/16 05:23:33;;;;;;;8.30;7.60;;;;;;;6.34;100.00;102727.53;5054731;28;20615;-77
2023/12/16 05:25:59;;;;;;;9.87;8.97;;;;;;;6.33;100.00;102738.63;5051892;28;20884;-76
2023/12/16 05:28:24;;;;;;;8.00;7.30;;;;;;;6.32;100.00;102734.28;5055040;28;20629;-77
2023/12/16 05:30:49;;;;;;;8.37;7.57;;;;;;;6.30;100.00;102736.78;5055916;28;20219;-77
2023/12/16 05:33:15;;;;;;;8.67;7.77;;;;;;;6.30;100.00;102734.19;5057359;28;20189;-76
2023/12/16 05:35:40;;;;;;;7.80;7.10;;;;;;;6.29;100.00;102731.56;5051632;28;20205;-77
2023/12/16 05:38:06;;;;;;;7.80;6.57;;;;;;;6.24;100.00;102726.22;5057961;28;20186;-76
2023/12/16 05:40:31;;;;;;;8.30;7.43;;;;;;;6.22;100.00;102732.97;5052291;28;20279;-76
2023/12/16 05:42:56;;;;;;;7.73;6.53;;;;;;;6.20;100.00;102739.72;5053672;28;20764;-76
2023/12/16 05:45:22;;;;;;;7.33;6.57;;;;;;;6.15;100.00;102731.78;5058339;28;20236;-76
2023/12/16 05:47:47;;;;;;;7.33;6.63;;;;;;;6.10;100.00;102729.00;5055727;28;21017;-75
2023/12/16 05:50:12;;;;;;;6.30;5.70;;;;;;;6.04;100.00;102723.53;5066553;28;20854;-75
2023/12/16 05:52:37;;;;;;;6.10;5.50;;;;;;;5.99;100.00;102736.94;5064966;28;20637;-76
2023/12/16 05:55:04;;;;;;;5.57;4.93;;;;;;;5.92;100.00;102733.19;5058242;28;20611;-76
2023/12/16 05:57:29;;;;;;;5.17;4.77;;;;;;;5.89;100.00;102733.94;5062006;28;20212;-76
2023/12/16 05:59:55;;;;;;;6.10;5.50;;;;;;;5.86;100.00;102743.16;5061794;28;20187;-76
2023/12/16 06:02:20;;;;;;;5.57;5.07;;;;;;;5.84;100.00;102735.38;5057357;28;20190;-76
2023/12/16 06:04:46;;;;;;;6.23;5.63;;;;;;;5.84;100.00;102734.47;5058257;28;20357;-75
2023/12/16 06:07:11;;;;;;;6.00;5.50;;;;;;;5.82;100.00;102752.41;5060318;28;20267;-76
2023/12/16 06:09:36;;;;;;;5.40;4.90;;;;;;;5.81;100.00;102748.06;5058239;28;20195;-77
2023/12/16 06:12:02;;;;;;;5.80;5.27;;;;;;;5.82;100.00;102752.41;5057436;28;20207;-76
2023/12/16 06:14:28;;;;;;;6.03;5.43;;;;;;;5.85;100.00;102755.13;5061051;28;20249;-76
2023/12/16 06:16:53;;;;;;;5.97;5.37;;;;;;;5.86;100.00;102756.91;5058708;28;20621;-76
2023/12/16 06:19:18;;;;;;;6.00;5.40;;;;;;;5.86;100.00;102761.13;5059410;28;20661;-76
2023/12/16 06:21:44;;;;;;;6.17;5.67;;;;;;;5.87;100.00;102762.91;5057640;28;20185;-76
2023/12/16 06:24:10;;;;;;;5.57;5.07;;;;;;;5.91;100.00;102769.97;5053932;28;20187;-76
2023/12/16 06:26:36;;;;;;;6.17;5.57;;;;;;;5.94;100.00;102765.00;5055242;28;20453;-75
2023/12/16 06:29:01;;;;;;;5.83;5.33;;;;;;;5.98;100.00;102768.59;5058610;28;20238;-75
2023/12/16 06:31:26;;;;;;;5.50;5.07;;;;;;;6.00;100.00;102764.44;5057320;28;20190;-76
2023/12/16 06:33:52;;;;;;;5.73;5.23;;;;;;;6.00;100.00;102773.03;5059199;28;20245;-76
2023/12/16 06:36:17;;;;;;;6.43;5.83;;;;;;;6.02;100.00;102774.00;5051524;28;20678;-76
2023/12/16 06:38:43;;;;;;;6.67;5.40;;;;;;;6.04;100.00;102769.81;5054722;28;20189;-76
2023/12/16 06:41:08;;;;;;;6.10;5.50;;;;;;;6.06;100.00;102763.06;5059409;28;20603;-76
2023/12/16 06:43:34;;;;;;;5.70;5.20;;;;;;;6.09;100.00;102767.47;5062152;28;20176;-76
2023/12/16 06:45:59;;;;;;;6.07;5.47;;;;;;;6.10;100.00;102770.13;5061375;28;20268;-76
2023/12/16 06:48:25;;;;;;;6.00;5.13;;;;;;;6.12;100.00;102764.19;5061928;28;20211;-76
2023/12/16 06:50:50;;;;;;;6.03;5.43;;;;;;;6.12;100.00;102770.19;5060861;28;20213;-74
2023/12/16 06:53:16;;;;;;;6.50;5.90;;;;;;;6.13;100.00;102765.91;5048646;28;20197;-72
2023/12/16 06:55:42;;;;;;;5.70;5.10;;;;;;;6.12;100.00;102767.63;5056745;28;20318;-76
2023/12/16 06:58:08;;;;;;;5.40;4.93;;;;;;;6.10;100.00;102775.28;5056381;28;20686;-76
2023/12/16 07:00:33;;;;;;;5.63;5.13;;;;;;;6.09;100.00;102777.75;5051637;28;20189;-75
2023/12/16 07:02:59;;;;;;;4.93;4.53;;;;;;;6.08;100.00;102786.25;5052459;28;20186;-76
2023/12/16 07:05:25;;;;;;;5.63;5.07;;;;;;;6.05;100.00;102784.44;5044793;28;20187;-76
2023/12/16 07:07:50;;;;;;;5.13;4.63;;;;;;;6.03;100.00;102780.91;5053756;28;20599;-76
2023/12/16 07:10:16;;;;;;;4.93;4.20;;;;;;;6.01;100.00;102782.50;5058472;28;20192;-73
2023/12/16 07:12:41;;;;;;;5.23;4.73;;;;;;;6.00;100.00;102779.88;5063708;28;20195;-76
2023/12/16 07:15:07;;;;;;;4.87;4.47;;;;;;;5.98;100.00;102786.59;5057867;28;20222;-76
2023/12/16 07:17:33;;;;;;;5.13;4.63;;;;;;;5.95;100.00;102793.34;5062854;28;20209;-76
2023/12/16 07:20:00;;;;;;;4.90;4.50;;;;;;;5.92;100.00;102794.88;5059272;28;20248;-75
2023/12/16 07:22:27;;;;;;;4.73;4.33;;;;;;;5.89;100.00;102792.13;5061443;28;20202;-76
2023/12/16 07:24:53;;;;;;;5.10;4.70;;;;;;;5.88;100.00;102795.50;5059467;28;20328;-75
2023/12/16 07:27:18;;;;;;;4.83;4.43;;;;;;;5.88;100.00;102801.56;5057718;28;20288;-76
2023/12/16 07:29:43;;;;;;;5.00;4.50;;;;;;;5.90;100.00;102799.03;5058987;28;20299;-75
2023/12/16 07:32:09;;;;;;;4.57;4.17;;;;;;;5.94;100.00;102806.97;5056059;28;20824;-76
2023/12/16 07:34:34;;;;;;;4.63;4.23;;;;;;;5.96;100.00;102804.50;5057247;28;20192;-76
2023/12/16 07:36:59;;;;;;;5.17;4.33;;;;;;;5.99;100.00;102808.91;5059538;28;20300;-75
2023/12/16 07:39:25;;;;;;;5.10;4.60;;;;;;;6.01;100.00;102815.06;5057337;28;20195;-76
2023/12/16 07:41:50;;;;;;;5.10;4.50;;;;;;;6.05;100.00;102815.28;5060016;28;20188;-77
2023/12/16 07:44:15;;;;;;;4.27;3.87;;;;;;;6.10;100.00;102812.94;5057314;28;20190;-74
2023/12/16 07:46:41;;;;;;;5.30;4.40;;;;;;;6.14;100.00;102807.16;5060339;28;20208;-75
2023/12/16 07:49:07;;;;;;;4.50;4.10;;;;;;;6.19;100.00;102809.94;5057115;28;20619;-76
2023/12/16 07:51:32;;;;;;;4.30;3.93;;;;;;;6.23;100.00;102802.44;5056435;28;20741;-76
2023/12/16 07:53:58;;;;;;;4.60;4.20;;;;;;;6.28;100.00;102806.94;5055267;28;20653;-75
2023/12/16 07:56:26;;;;;;;4.53;4.13;;;;;;;6.32;100.00;102812.31;5055272;28;20206;-75
2023/12/16 07:58:52;;;;;;;4.40;4.00;;;;;;;6.36;100.00;102816.81;5058627;28;20225;-76
2023/12/16 08:01:18;;;;;;;4.27;3.93;;;;;;;6.42;100.00;102821.38;5055704;28;21080;-75
2023/12/16 08:03:45;;;;;;;4.63;4.20;;;;;;;6.48;100.00;102819.13;5058580;28;20190;-76
2023/12/16 08:06:10;;;;;;;4.40;4.00;;;;;;;6.53;100.00;102827.91;5059125;28;20723;-74
2023/12/16 08:08:39;;;;;;;4.37;3.97;;;;;;;6.60;100.00;102825.66;5056247;28;20210;-76
2023/12/16 08:11:05;;;;;;;4.37;3.70;;;;;;;6.65;100.00;102825.06;5053469;28;20540;-76
2023/12/16 08:13:31;;;;;;;4.30;3.90;;;;;;;6.70;100.00;102823.59;5052501;28;20665;-76
2023/12/16 08:15:56;;;;;;;4.37;3.97;;;;;;;6.76;100.00;102829.81;5057722;28;20211;-75
2023/12/16 08:18:22;;;;;;;4.57;4.17;;;;;;;6.80;100.00;102836.91;5056431;28;20415;-75
2023/12/16 08:20:47;;;;;;;3.93;3.53;;;;;;;6.84;100.00;102825.94;5058234;28;20261;-75
2023/12/16 08:23:13;;;;;;;4.30;3.67;;;;;;;6.89;100.00;102831.31;5048596;28;20297;-75
2023/12/16 08:25:39;;;;;;;4.77;4.23;;;;;;;6.96;100.00;102839.38;5053963;28;20208;-76
2023/12/16 08:28:04;;;;;;;4.53;4.13;;;;;;;7.03;100.00;102834.53;5056689;28;20216;-76
2023/12/16 08:30:29;;;;;;;3.87;3.47;;;;;;;7.10;100.00;102836.56;5050825;28;20188;-76
2023/12/16 08:32:55;;;;;;;4.40;4.00;;;;;;;7.16;100.00;102834.28;5053822;28;20197;-76
2023/12/16 08:35:20;;;;;;;3.83;3.53;;;;;;;7.21;100.00;102843.09;5051383;28;20316;-76
2023/12/16 08:37:45;;;;;;;4.00;3.70;;;;;;;7.25;100.00;102842.44;5054890;28;20198;-76
2023/12/16 08:40:11;;;;;;;6.40;4.13;;;;;;;7.30;100.00;102838.38;5053157;28;21044;-77
2023/12/16 08:42:38;;;;;;;4.50;4.10;;;;;;;7.36;100.00;102847.19;5052004;28;20561;-76
2023/12/16 08:45:03;;;;;;;4.53;4.13;;;;;;;7.41;100.00;102841.44;5054624;28;20208;-76
2023/12/16 08:47:29;;;;;;;4.10;3.73;;;;;;;7.42;100.00;102842.31;5047351;28;20792;-74
2023/12/16 08:49:55;;;;;;;4.20;3.80;;;;;;;7.47;100.00;102848.59;5047961;28;20184;-77
2023/12/16 08:52:20;;;;;;;4.47;4.07;;;;;;;7.55;100.00;102843.78;5044935;28;20737;-76
2023/12/16 08:54:45;;;;;;;4.20;3.80;;;;;;;7.62;100.00;102845.78;5050201;28;20625;-76
2023/12/16 08:57:11;;;;;;;4.00;3.70;;;;;;;7.69;100.00;102852.09;5048996;28;20232;-77
2023/12/16 08:59:37;;;;;;;4.17;3.77;;;;;;;7.75;100.00;102849.81;5046415;28;20189;-75
2023/12/16 09:02:03;;;;;;;4.23;3.93;;;;;;;7.81;100.00;102862.06;5048819;28;20189;-75
2023/12/16 09:04:28;;;;;;;3.70;3.40;;;;;;;7.84;100.00;102857.94;5050389;28;20192;-76
2023/12/16 09:06:54;;;;;;;3.97;3.57;;;;;;;7.90;100.00;102868.53;5047541;28;20690;-76
2023/12/16 09:09:20;;;;;;;3.87;3.57;;;;;;;7.93;100.00;102873.81;5049171;28;20289;-77
2023/12/16 09:11:45;;;;;;;3.53;3.23;;;;;;;7.97;100.00;102873.94;5047723;28;20589;-74
2023/12/16 09:14:10;;;;;;;4.40;3.60;;;;;;;8.00;100.00;102874.06;5048334;28;20188;-76
2023/12/16 09:16:36;;;;;;;4.57;4.17;;;;;;;8.00;100.00;102867.22;5048184;28;20696;-76
2023/12/16 09:19:03;;;;;;;4.30;3.90;;;;;;;8.00;100.00;102879.22;5053458;28;20669;-74
2023/12/16 09:21:28;;;;;;;3.93;3.53;;;;;;;8.03;100.00;102889.69;5049693;28;20186;-76
2023/12/16 09:23:54;;;;;;;4.30;3.90;;;;;;;8.08;100.00;102883.03;5052271;28;20666;-76
2023/12/16 09:26:21;;;;;;;3.83;3.43;;;;;;;8.13;100.00;102888.38;5052333;28;20281;-76
2023/12/16 09:28:47;;;;;;;3.93;3.33;;;;;;;8.18;100.00;102886.88;5050949;28;20686;-76
2023/12/16 09:31:13;;;;;;;3.73;3.43;;;;;;;8.23;100.00;102898.28;5057023;28;20236;-76
2023/12/16 09:33:38;;;;;;;4.07;3.20;;;;;;;8.27;100.00;102902.75;5057905;28;20184;-76
2023/12/16 09:36:04;;;;;;;3.70;3.30;;;;;;;8.30;100.00;102915.78;5052547;28;20218;-77
2023/12/16 09:38:29;;;;;;;3.90;3.47;;;;;;;8.34;100.00;102916.81;5050303;28;20178;-75
2023/12/16 09:40:55;;;;;;;3.47;3.10;;;;;;;8.36;100.00;102904.84;5059014;28;20189;-77
2023/12/16 09:43:22;;;;;;;3.43;3.13;;;;;;;8.39;100.00;102905.84;5055068;28;20189;-76
2023/12/16 09:45:47;;;;;;;3.07;2.87;;;;;;;8.43;100.00;102911.16;5056395;28;20868;-76
2023/12/16 09:48:16;;;;;;;4.57;3.20;;;;;;;8.47;100.00;102897.56;5054927;28;20206;-76
2023/12/16 09:50:42;;;;;;;3.20;2.90;;;;;;;8.51;100.00;102899.47;5058354;28;20288;-76
2023/12/16 09:53:07;;;;;;;3.60;3.03;;;;;;;8.57;100.00;102894.56;5059914;28;20186;-76
2023/12/16 09:55:33;;;;;;;3.83;3.40;;;;;;;8.61;100.00;102896.47;5055123;28;20285;-76
2023/12/16 09:57:59;;;;;;;3.70;3.40;;;;;;;8.68;100.00;102897.59;5060838;28;21008;-76
2023/12/16 10:00:27;;;;;;;3.50;3.13;;;;;;;8.74;100.00;102899.56;5063150;28;20186;-77
2023/12/16 10:02:54;;;;;;;3.80;3.40;;;;;;;8.78;100.00;102893.66;5056457;28;20221;-75
2023/12/16 10:05:21;;;;;;;3.50;3.20;;;;;;;8.83;100.00;102892.16;5059401;28;20891;-76
2023/12/16 10:07:46;;;;;;;4.03;3.63;;;;;;;8.89;100.00;102897.59;5060771;28;20209;-75
2023/12/16 10:10:13;;;;;;;3.53;3.13;;;;;;;8.93;100.00;102903.75;5057443;28;20212;-76
2023/12/16 10:12:38;;;;;;;3.20;3.00;;;;;;;8.98;100.00;102904.81;5057122;28;20566;-76
2023/12/16 10:15:04;;;;;;;3.30;3.00;;;;;;;9.00;100.00;102901.47;5056999;28;20204;-77
2023/12/16 10:17:31;;;;;;;3.50;3.20;;;;;;;9.03;100.00;102894.66;5060982;28;20194;-75
2023/12/16 10:19:56;;;;;;;4.03;3.40;;;;;;;9.05;100.00;102893.03;5059226;28;20197;-76
2023/12/16 10:22:21;;;;;;;5.33;3.83;;;;;;;9.10;100.00;102894.06;5057091;28;20449;-76
2023/12/16 10:24:47;;;;;;;4.07;3.73;;;;;;;9.13;100.00;102894.19;5054655;28;20193;-77
2023/12/16 10:27:13;;;;;;;3.67;3.37;;;;;;;9.18;100.00;102891.78;5056343;28;20304;-76
2023/12/16 10:29:40;;;;;;;4.17;3.67;;;;;;;9.21;100.00;102900.56;5054357;28;20186;-76
2023/12/16 10:32:10;;;;;;;4.67;4.17;;;;;;;9.24;100.00;102887.75;5058099;28;20197;-75
2023/12/16 10:34:35;;;;;;;5.57;3.77;;;;;;;9.27;100.00;102884.41;5056976;28;21044;-76
2023/12/16 10:37:08;;;;;;;4.50;4.10;;;;;;;9.28;100.00;102881.00;5058028;28;20240;-76
2023/12/16 10:39:34;;;;;;;3.93;3.63;;;;;;;9.26;100.00;102882.66;5061757;28;20274;-76
2023/12/16 10:42:00;;;;;;;4.30;3.90;;;;;;;9.30;100.00;102885.41;5058289;28;20819;-76
2023/12/16 10:44:26;;;;;;;5.07;4.57;;;;;;;9.34;100.00;102876.06;5057712;28;20201;-76
2023/12/16 10:46:54;;;;;;;4.50;4.10;;;;;;;9.39;100.00;102874.53;5059545;28;20213;-76
2023/12/16 10:49:28;;;;;;;4.63;4.23;;;;;;;9.44;100.00;102869.53;5054632;28;20175;-76
2023/12/16 10:52:03;;;;;;;4.90;4.40;;;;;;;9.49;100.00;102868.00;5059201;28;20569;-76
2023/12/16 10:54:33;;;;;;;6.63;6.03;;;;;;;9.49;100.00;102862.84;5056973;28;20194;-77
2023/12/16 10:57:06;;;;;;;6.03;5.53;;;;;;;9.50;100.00;102866.28;5061386;28;20636;-76
2023/12/16 10:59:42;;;;;;;7.60;6.80;;;;;;;9.50;100.00;102851.69;5057316;28;20220;-76
2023/12/16 11:02:23;;;;;;;7.17;6.47;;;;;;;9.45;100.00;102856.66;5057187;28;20197;-75
2023/12/16 11:04:55;;;;;;;6.77;6.03;;;;;;;9.43;100.00;102855.75;5057369;28;20276;-75
2023/12/16 11:07:24;;;;;;;6.80;6.20;;;;;;;9.45;100.00;102854.06;5055061;28;21083;-76
2023/12/16 11:09:51;;;;;;;6.77;5.80;;;;;;;9.43;100.00;102850.56;5057776;28;20247;-77
2023/12/16 11:12:19;;;;;;;5.30;4.87;;;;;;;9.46;100.00;102852.38;5055222;28;20186;-75
2023/12/16 11:14:45;;;;;;;5.87;5.37;;;;;;;9.50;100.00;102850.78;5058986;28;20263;-75
2023/12/16 11:17:23;;;;;;;6.17;5.57;;;;;;;9.53;100.00;102848.31;5059184;28;20233;-77